Hanseatic Scout — V2BM2 — position and weather

sailwx.info

Track history (hours):
 
Tides and Currents Weather Stations Pressure Air Temp Water Temp Dewpoint Dewpoint Depression Visibility Wind Speed Wind Dir Waves Ship Positions

Hanseatic Scout

Last reported at 2014-Aug-31 16:07 UTC. Time now 2014-Sep-01 11:43 UTC.
Position N 39°33' E 002°38'.

Length 89 m; draft 6.4 m.

Type: Ship (hazmat cat C). MMSI: 304867000.

Date/timePositionNaut miles runAvg speedWind from/ knotsBaromVisibWave heightAir tempDewpointWater temp
2014-Aug-31 16:07N 39°33' E 002°38'0 0.0
2014-Aug-31 15:31N 39°33' E 002°38'0 0.0
2014-Aug-31 14:31N 39°33' E 002°38'0 0.0
2014-Aug-31 13:28N 39°33' E 002°38'0 0.0
2014-Aug-31 12:31N 39°33' E 002°38'0 0.0
2014-Aug-31 11:31N 39°33' E 002°38'0 0.0
2014-Aug-31 10:31N 39°33' E 002°38'1 1.0
2014-Aug-31 09:33N 39°32' E 002°39'7 7.4
2014-Aug-31 08:33N 39°27' E 002°33'8 7.6
2014-Aug-31 07:33N 39°21' E 002°27'8 7.8
2014-Aug-31 06:33N 39°15' E 002°20'8 7.8
2014-Aug-31 05:33N 39°09' E 002°13'8 8.2
2014-Aug-31 04:33N 39°03' E 002°06'8 8.1
2014-Aug-31 03:33N 38°57' E 001°59'8 7.9
2014-Aug-31 02:33N 38°51' E 001°53'8 7.6
2014-Aug-31 01:29N 38°45' E 001°46'7 7.5
2014-Aug-31 00:33N 38°39' E 001°40'8 7.4
2014-Aug-30 23:29N 38°34' E 001°33'7 7.5
2014-Aug-30 22:33N 38°30' E 001°26'8 7.6
2014-Aug-30 21:33N 38°25' E 001°18'8 7.7
2014-Aug-30 20:33N 38°21' E 001°10'8 7.6
2014-Aug-30 19:33N 38°16' E 001°02'8 7.5
2014-Aug-30 18:33N 38°12' E 000°55'8 7.6
2014-Aug-30 17:33N 38°07' E 000°47'85 7.6
2014-Aug-30 06:19N 37°16' W 000°40'5 7.0
2014-Aug-30 05:32N 37°13' W 000°45'9 7.0
2014-Aug-30 04:18N 37°08' W 000°54'35 7.3
2014-Aug-29 23:33N 36°47' W 001°29'8 7.6
2014-Aug-29 22:33N 36°42' W 001°37'10 7.7
2014-Aug-29 21:16N 36°36' W 001°46'21 7.7
2014-Aug-29 18:33N 36°24' W 002°07'8 7.7
2014-Aug-29 17:32N 36°21' W 002°16'10 8.2
2014-Aug-29 16:19N 36°19' W 002°29'144 8.6
2014-Aug-28 23:33N 35°58' W 005°25'61 8.5
2014-Aug-28 16:20N 35°60' W 006°41'7 8.6
2014-Aug-28 15:33N 36°02' W 006°49'16 8.2
2014-Aug-28 13:33N 36°06' W 007°08'9 7.9
2014-Aug-28 12:23N 36°08' W 007°20'6 7.8
2014-Aug-28 11:33N 36°10' W 007°27'7 7.2
2014-Aug-28 10:33N 36°12' W 007°36'8 7.7
2014-Aug-28 09:33N 36°14' W 007°45'8 7.8
2014-Aug-28 08:33N 36°16' W 007°54'14 9.6
2014-Aug-28 07:06N 36°19' W 008°11'5 9.7
2014-Aug-28 06:33N 36°21' W 008°17'10 9.6
2014-Aug-28 05:33N 36°24' W 008°29'1010.0
2014-Aug-28 04:33N 36°26' W 008°41'12 9.8
2014-Aug-28 03:22N 36°29' W 008°55'810.1
2014-Aug-28 02:33N 36°31' W 009°05'10 9.9
2014-Aug-28 01:30N 36°34' W 009°17'13 9.2
2014-Aug-28 00:06N 36°44' W 009°27'9 9.1
2014-Aug-27 23:04N 36°52' W 009°34'8 9.8
2014-Aug-27 22:12N 37°00' W 009°36'1110.2
2014-Aug-27 21:05N 37°11' W 009°40'510.0
2014-Aug-27 20:33N 37°16' W 009°42'2110.3
2014-Aug-27 18:33N 37°37' W 009°47'  
2014-Aug-23 03:33N 51°01' E 001°20'1111.0
2014-Aug-23 02:34N 51°08' E 001°33'9 8.9
2014-Aug-23 01:33N 51°15' E 001°41'9 8.7
2014-Aug-23 00:33N 51°23' E 001°45'9 8.6
2014-Aug-22 23:33N 51°32' E 001°46'9 9.5
2014-Aug-22 22:33N 51°42' E 001°45'10 9.5
2014-Aug-22 21:33N 51°50' E 001°40'9 8.9
2014-Aug-22 20:33N 51°56' E 001°28'8 7.5
2014-Aug-22 19:33N 51°58' E 001°17'6 6.2
2014-Aug-22 18:33N 52°02' E 001°09'0 0.1
2014-Aug-22 17:31N 52°02' E 001°10'0 0.0
2014-Aug-22 16:31N 52°02' E 001°10'0 0.0
2014-Aug-22 15:31N 52°02' E 001°10'0 0.0
2014-Aug-22 14:31N 52°02' E 001°10'0 0.0
2014-Aug-22 13:31N 52°02' E 001°10'0 0.0
2014-Aug-22 12:28N 52°02' E 001°10'0 0.0
2014-Aug-22 11:31N 52°02' E 001°10'0 0.0
2014-Aug-22 10:31N 52°02' E 001°10'0 0.0
2014-Aug-22 09:31N 52°02' E 001°10'0 0.0
2014-Aug-22 08:31N 52°02' E 001°10'0 0.0
2014-Aug-22 07:31N 52°02' E 001°10'0 0.0
2014-Aug-22 06:31N 52°02' E 001°10'0 0.0
2014-Aug-22 05:31N 52°02' E 001°10'0 0.0
2014-Aug-22 04:31N 52°02' E 001°10'0 0.0
2014-Aug-22 03:31N 52°02' E 001°10'0 0.0
2014-Aug-22 02:28N 52°02' E 001°10'0 0.0
2014-Aug-22 01:31N 52°02' E 001°10'0 0.0
2014-Aug-22 00:31N 52°02' E 001°10'0 0.0
2014-Aug-21 23:31N 52°02' E 001°10'0 0.0
2014-Aug-21 22:31N 52°02' E 001°10'0 0.0
2014-Aug-21 21:31N 52°02' E 001°10'0 0.0
2014-Aug-21 20:31N 52°02' E 001°10'0 0.0
2014-Aug-21 19:31N 52°02' E 001°10'0 0.0
2014-Aug-21 18:31N 52°02' E 001°10'0 0.0
2014-Aug-21 17:31N 52°02' E 001°10'0 0.0
2014-Aug-21 16:28N 52°02' E 001°10'  
Track history (hours):
 
Tides and Currents Weather Stations Pressure Air Temp Water Temp Dewpoint Dewpoint Depression Visibility Wind Speed Wind Dir Waves Ship Positions

Hanseatic Scout

Last reported at 2014-Aug-31 16:07 UTC. Time now 2014-Sep-01 11:43 UTC.
Position N 39°33' E 002°38'.

Length 89 m; draft 6.4 m.

Type: Ship (hazmat cat C). MMSI: 304867000.

Date/timePositionNaut miles runAvg speedWind from/ knotsBaromVisibWave heightAir tempDewpointWater temp
2014-Aug-31 16:07N 39°33' E 002°38'0 0.0
2014-Aug-31 15:31N 39°33' E 002°38'0 0.0
2014-Aug-31 14:31N 39°33' E 002°38'0 0.0
2014-Aug-31 13:28N 39°33' E 002°38'0 0.0
2014-Aug-31 12:31N 39°33' E 002°38'0 0.0
2014-Aug-31 11:31N 39°33' E 002°38'0 0.0
2014-Aug-31 10:31N 39°33' E 002°38'1 1.0
2014-Aug-31 09:33N 39°32' E 002°39'7 7.4
2014-Aug-31 08:33N 39°27' E 002°33'8 7.6
2014-Aug-31 07:33N 39°21' E 002°27'8 7.8
2014-Aug-31 06:33N 39°15' E 002°20'8 7.8
2014-Aug-31 05:33N 39°09' E 002°13'8 8.2
2014-Aug-31 04:33N 39°03' E 002°06'8 8.1
2014-Aug-31 03:33N 38°57' E 001°59'8 7.9
2014-Aug-31 02:33N 38°51' E 001°53'8 7.6
2014-Aug-31 01:29N 38°45' E 001°46'7 7.5
2014-Aug-31 00:33N 38°39' E 001°40'8 7.4
2014-Aug-30 23:29N 38°34' E 001°33'7 7.5
2014-Aug-30 22:33N 38°30' E 001°26'8 7.6
2014-Aug-30 21:33N 38°25' E 001°18'8 7.7
2014-Aug-30 20:33N 38°21' E 001°10'8 7.6
2014-Aug-30 19:33N 38°16' E 001°02'8 7.5
2014-Aug-30 18:33N 38°12' E 000°55'8 7.6
2014-Aug-30 17:33N 38°07' E 000°47'85 7.6
2014-Aug-30 06:19N 37°16' W 000°40'5 7.0
2014-Aug-30 05:32N 37°13' W 000°45'9 7.0
2014-Aug-30 04:18N 37°08' W 000°54'35 7.3
2014-Aug-29 23:33N 36°47' W 001°29'8 7.6
2014-Aug-29 22:33N 36°42' W 001°37'10 7.7
2014-Aug-29 21:16N 36°36' W 001°46'21 7.7
2014-Aug-29 18:33N 36°24' W 002°07'8 7.7
2014-Aug-29 17:32N 36°21' W 002°16'10 8.2
2014-Aug-29 16:19N 36°19' W 002°29'144 8.6
2014-Aug-28 23:33N 35°58' W 005°25'61 8.5
2014-Aug-28 16:20N 35°60' W 006°41'7 8.6
2014-Aug-28 15:33N 36°02' W 006°49'16 8.2
2014-Aug-28 13:33N 36°06' W 007°08'9 7.9
2014-Aug-28 12:23N 36°08' W 007°20'6 7.8
2014-Aug-28 11:33N 36°10' W 007°27'7 7.2
2014-Aug-28 10:33N 36°12' W 007°36'8 7.7
2014-Aug-28 09:33N 36°14' W 007°45'8 7.8
2014-Aug-28 08:33N 36°16' W 007°54'14 9.6
2014-Aug-28 07:06N 36°19' W 008°11'5 9.7
2014-Aug-28 06:33N 36°21' W 008°17'10 9.6
2014-Aug-28 05:33N 36°24' W 008°29'1010.0
2014-Aug-28 04:33N 36°26' W 008°41'12 9.8
2014-Aug-28 03:22N 36°29' W 008°55'810.1
2014-Aug-28 02:33N 36°31' W 009°05'10 9.9
2014-Aug-28 01:30N 36°34' W 009°17'13 9.2
2014-Aug-28 00:06N 36°44' W 009°27'9 9.1
2014-Aug-27 23:04N 36°52' W 009°34'8 9.8
2014-Aug-27 22:12N 37°00' W 009°36'1110.2
2014-Aug-27 21:05N 37°11' W 009°40'510.0
2014-Aug-27 20:33N 37°16' W 009°42'2110.3
2014-Aug-27 18:33N 37°37' W 009°47'  
2014-Aug-23 03:33N 51°01' E 001°20'1111.0
2014-Aug-23 02:34N 51°08' E 001°33'9 8.9
2014-Aug-23 01:33N 51°15' E 001°41'9 8.7
2014-Aug-23 00:33N 51°23' E 001°45'9 8.6
2014-Aug-22 23:33N 51°32' E 001°46'9 9.5
2014-Aug-22 22:33N 51°42' E 001°45'10 9.5
2014-Aug-22 21:33N 51°50' E 001°40'9 8.9
2014-Aug-22 20:33N 51°56' E 001°28'8 7.5
2014-Aug-22 19:33N 51°58' E 001°17'6 6.2
2014-Aug-22 18:33N 52°02' E 001°09'0 0.1
2014-Aug-22 17:31N 52°02' E 001°10'0 0.0
2014-Aug-22 16:31N 52°02' E 001°10'0 0.0
2014-Aug-22 15:31N 52°02' E 001°10'0 0.0
2014-Aug-22 14:31N 52°02' E 001°10'0 0.0
2014-Aug-22 13:31N 52°02' E 001°10'0 0.0
2014-Aug-22 12:28N 52°02' E 001°10'0 0.0
2014-Aug-22 11:31N 52°02' E 001°10'0 0.0
2014-Aug-22 10:31N 52°02' E 001°10'0 0.0
2014-Aug-22 09:31N 52°02' E 001°10'0 0.0
2014-Aug-22 08:31N 52°02' E 001°10'0 0.0
2014-Aug-22 07:31N 52°02' E 001°10'0 0.0
2014-Aug-22 06:31N 52°02' E 001°10'0 0.0
2014-Aug-22 05:31N 52°02' E 001°10'0 0.0
2014-Aug-22 04:31N 52°02' E 001°10'0 0.0
2014-Aug-22 03:31N 52°02' E 001°10'0 0.0
2014-Aug-22 02:28N 52°02' E 001°10'0 0.0
2014-Aug-22 01:31N 52°02' E 001°10'0 0.0
2014-Aug-22 00:31N 52°02' E 001°10'0 0.0
2014-Aug-21 23:31N 52°02' E 001°10'0 0.0
2014-Aug-21 22:31N 52°02' E 001°10'0 0.0
2014-Aug-21 21:31N 52°02' E 001°10'0 0.0
2014-Aug-21 20:31N 52°02' E 001°10'0 0.0
2014-Aug-21 19:31N 52°02' E 001°10'0 0.0
2014-Aug-21 18:31N 52°02' E 001°10'0 0.0
2014-Aug-21 17:31N 52°02' E 001°10'0 0.0
2014-Aug-21 16:28N 52°02' E 001°10'  

Dump ship's entire track history